Time;durP1;ratioP1;P1;durP2;ratioP2;P2;SDS_P1;SDS_P2;PMS_P1;PMS_P2;Temp;Humidity;BMP_temperature;BMP_pressure;BME280_temperature;BME280_humidity;BME280_pressure;Samples;Min_cycle;Max_cycle;Signal;HPM_P1;HPM_P2
2022/11/10 00:00:19;;;;;;;54.72;27.52;;;;;;;9.09;100.00;98514.34;2585372;28;21018;-78
2022/11/10 00:01:55;;;;;;;53.65;26.83;;;;;;;9.29;100.00;98520.03;2584715;28;20058;-77
2022/11/10 00:03:11;;;;;;;52.33;27.45;;;;;;;9.34;100.00;98519.91;2584886;28;20516;-80
2022/11/10 00:04:27;;;;;;;55.30;27.75;;;;;;;9.12;100.00;98524.75;2585359;28;20136;-78
2022/11/10 00:05:42;;;;;;;54.40;27.35;;;;;;;9.00;100.00;98518.88;2585315;28;20485;-81
2022/11/10 00:06:58;;;;;;;58.55;29.98;;;;;;;9.15;100.00;98528.16;2585544;28;20057;-78
2022/11/10 00:08:13;;;;;;;55.13;28.02;;;;;;;9.14;100.00;98521.22;2584994;28;20583;-78
2022/11/10 00:09:29;;;;;;;68.18;33.25;;;;;;;9.18;100.00;98525.47;2584891;28;20519;-78
2022/11/10 00:10:56;;;;;;;65.53;32.72;;;;;;;8.94;100.00;98521.63;2574282;28;20054;-78
2022/11/10 00:12:12;;;;;;;67.40;32.85;;;;;;;9.22;100.00;98525.41;2580580;28;20046;-78
2022/11/10 00:13:31;;;;;;;68.47;32.03;;;;;;;9.39;100.00;98522.44;2585271;28;20104;-78
2022/11/10 00:17:55;;;;;;;69.38;32.55;;;;;;;9.44;100.00;98528.44;2585198;28;20053;-78
2022/11/10 00:19:10;;;;;;;64.55;31.63;;;;;;;9.47;100.00;98528.34;2585500;28;20054;-78
2022/11/10 00:20:26;;;;;;;68.38;31.67;;;;;;;9.46;100.00;98537.09;2585022;28;20111;-78
2022/11/10 00:21:42;;;;;;;67.97;32.13;;;;;;;9.47;100.00;98531.81;2584092;28;20936;-80
2022/11/10 00:22:57;;;;;;;58.72;30.75;;;;;;;9.51;100.00;98529.16;2585267;28;20145;-79
2022/11/10 00:24:13;;;;;;;66.70;32.40;;;;;;;9.53;100.00;98536.06;2585133;28;20100;-78
2022/11/10 00:25:31;;;;;;;56.17;29.15;;;;;;;9.49;100.00;98538.75;2584838;28;20081;-78
2022/11/10 00:26:47;;;;;;;56.60;27.15;;;;;;;9.46;100.00;98537.09;2584842;28;20073;-78
2022/11/10 00:28:02;;;;;;;54.50;26.23;;;;;;;9.37;100.00;98540.78;2585669;28;20046;-78
2022/11/10 00:29:18;;;;;;;53.03;27.20;;;;;;;9.34;100.00;98546.03;2585137;28;20049;-78
2022/11/10 00:30:36;;;;;;;54.50;26.27;;;;;;;9.44;100.00;98534.50;2584697;28;20058;-78
2022/11/10 00:31:52;;;;;;;52.47;26.98;;;;;;;9.39;100.00;98540.72;2584734;28;20042;-78
2022/11/10 00:33:07;;;;;;;44.35;23.30;;;;;;;9.47;100.00;98538.81;2585112;28;20057;-78
2022/11/10 00:34:24;;;;;;;47.50;23.52;;;;;;;9.01;100.00;98538.03;2584622;28;20076;-79
2022/11/10 00:35:39;;;;;;;53.47;26.00;;;;;;;9.22;100.00;98539.34;2585216;28;20081;-78
2022/11/10 00:36:55;;;;;;;46.53;25.70;;;;;;;9.30;100.00;98545.28;2585344;28;20132;-78
2022/11/10 00:38:10;;;;;;;52.92;25.95;;;;;;;9.44;100.00;98538.88;2585240;28;20115;-79
2022/11/10 00:39:26;;;;;;;48.97;26.05;;;;;;;9.53;100.00;98540.44;2585202;28;20053;-78
2022/11/10 00:40:42;;;;;;;68.25;30.55;;;;;;;9.37;100.00;98545.13;2584068;28;20070;-78
2022/11/10 00:41:58;;;;;;;57.53;29.55;;;;;;;9.45;100.00;98545.84;2584780;28;20042;-78
2022/11/10 00:43:13;;;;;;;57.22;29.95;;;;;;;9.50;100.00;98541.34;2585301;28;20196;-79
2022/11/10 00:44:29;;;;;;;70.65;32.53;;;;;;;9.21;100.00;98548.06;2585165;28;20049;-79
2022/11/10 00:45:45;;;;;;;59.80;31.25;;;;;;;9.36;100.00;98548.63;2585255;28;20057;-78
2022/11/10 00:47:01;;;;;;;74.68;33.78;;;;;;;9.50;100.00;98543.97;2585210;28;20650;-79
2022/11/10 00:48:17;;;;;;;74.93;33.13;;;;;;;9.19;100.00;98553.31;2584962;28;20084;-78
2022/11/10 00:49:32;;;;;;;81.55;35.90;;;;;;;9.11;100.00;98544.78;2585356;28;20100;-78
2022/11/10 00:50:48;;;;;;;78.28;36.58;;;;;;;9.27;100.00;98547.91;2584716;28;20376;-78
2022/11/10 00:52:03;;;;;;;86.47;36.65;;;;;;;9.22;100.00;98552.41;2585313;28;20397;-77
2022/11/10 00:53:19;;;;;;;80.75;35.40;;;;;;;9.19;100.00;98552.47;2585022;28;20050;-78
2022/11/10 00:54:35;;;;;;;67.50;33.13;;;;;;;9.36;100.00;98544.28;2584725;28;20095;-78
2022/11/10 00:55:50;;;;;;;70.53;32.28;;;;;;;9.18;100.00;98548.97;2584796;28;20180;-78
2022/11/10 00:57:06;;;;;;;70.70;30.73;;;;;;;9.15;100.00;98543.81;2584875;28;20161;-78
2022/11/10 00:58:22;;;;;;;69.50;31.55;;;;;;;9.41;100.00;98542.41;2584903;28;20785;-78
2022/11/10 00:59:37;;;;;;;67.93;31.20;;;;;;;9.28;100.00;98552.25;2586014;28;20064;-81
2022/11/10 01:01:03;;;;;;;67.35;30.92;;;;;;;9.32;100.00;98553.06;2586804;28;20061;-78
2022/11/10 01:02:18;;;;;;;64.47;28.42;;;;;;;9.34;100.00;98556.50;2586520;28;20054;-81
2022/11/10 01:03:34;;;;;;;56.92;28.52;;;;;;;9.31;100.00;98554.81;2587387;28;20050;-79
2022/11/10 01:04:50;;;;;;;55.85;28.23;;;;;;;9.31;100.00;98562.66;2586959;28;20061;-78
2022/11/10 01:06:07;;;;;;;72.70;31.23;;;;;;;9.36;100.00;98565.19;2586807;28;20176;-78
2022/11/10 01:07:23;;;;;;;58.22;28.05;;;;;;;9.38;100.00;98565.13;2586415;28;20056;-77
2022/11/10 01:08:39;;;;;;;61.40;30.65;;;;;;;9.44;100.00;98568.47;2585943;28;20053;-78
2022/11/10 01:09:55;;;;;;;54.88;28.20;;;;;;;9.51;100.00;98569.22;2586884;28;20469;-77
2022/11/10 01:11:16;;;;;;;57.92;27.58;;;;;;;9.50;100.00;98571.84;2586961;28;20544;-79
2022/11/10 01:12:32;;;;;;;54.85;28.50;;;;;;;9.38;100.00;98572.97;2586780;28;20049;-77
2022/11/10 01:13:50;;;;;;;55.05;27.77;;;;;;;9.28;100.00;98572.31;2586293;28;20052;-77
2022/11/10 01:15:06;;;;;;;57.85;28.15;;;;;;;9.45;100.00;98571.97;2586674;28;20057;-79
2022/11/10 01:16:26;;;;;;;58.05;28.10;;;;;;;9.49;100.00;98570.13;2586510;28;20136;-79
2022/11/10 01:17:41;;;;;;;51.05;26.65;;;;;;;9.50;100.00;98574.44;2587056;28;20108;-79
2022/11/10 01:18:59;;;;;;;49.78;24.67;;;;;;;9.36;100.00;98574.75;2585953;28;20452;-78
2022/11/10 01:20:14;;;;;;;51.38;25.10;;;;;;;9.40;100.00;98571.19;2586571;28;20046;-78
2022/11/10 01:21:30;;;;;;;51.42;26.13;;;;;;;9.49;100.00;98576.22;2585956;28;20053;-78
2022/11/10 01:22:46;;;;;;;46.05;25.60;;;;;;;9.14;100.00;98581.28;2586941;28;20486;-78
2022/11/10 01:24:01;;;;;;;54.63;26.20;;;;;;;9.27;100.00;98575.81;2586282;28;20287;-79
2022/11/10 01:25:17;;;;;;;52.13;26.38;;;;;;;9.27;100.00;98579.28;2586609;28;20045;-78
2022/11/10 01:26:33;;;;;;;47.67;26.23;;;;;;;9.37;100.00;98574.75;2586487;28;20434;-78
2022/11/10 01:27:50;;;;;;;51.78;26.73;;;;;;;9.39;100.00;98578.19;2586697;28;20049;-78
2022/11/10 01:29:05;;;;;;;48.47;25.92;;;;;;;9.50;100.00;98579.69;2585926;28;20046;-78
2022/11/10 01:30:21;;;;;;;49.67;25.15;;;;;;;9.54;100.00;98579.59;2586370;28;20135;-78
2022/11/10 01:31:36;;;;;;;47.80;25.00;;;;;;;9.54;100.00;98584.81;2586445;28;20591;-78
2022/11/10 01:32:53;;;;;;;50.83;25.95;;;;;;;9.61;100.00;98580.31;2586596;28;20185;-78
2022/11/10 01:34:09;;;;;;;49.42;25.88;;;;;;;9.59;100.00;98590.81;2586170;28;20046;-82
2022/11/10 01:35:24;;;;;;;47.65;24.70;;;;;;;9.60;100.00;98583.81;2586206;28;20180;-78
2022/11/10 01:36:40;;;;;;;47.78;24.95;;;;;;;9.64;100.00;98585.50;2586825;28;20157;-79
2022/11/10 01:37:56;;;;;;;45.28;22.88;;;;;;;9.35;100.00;98586.09;2586068;28;20057;-84
2022/11/10 01:39:11;;;;;;;46.58;23.70;;;;;;;9.41;100.00;98583.34;2586672;28;20070;-79
2022/11/10 01:40:27;;;;;;;47.33;23.35;;;;;;;9.26;100.00;98595.84;2586252;28;20049;-79
2022/11/10 01:41:43;;;;;;;43.17;23.55;;;;;;;9.32;100.00;98587.03;2586973;28;20058;-78
2022/11/10 01:42:58;;;;;;;40.65;22.60;;;;;;;9.35;100.00;98591.34;2586317;28;20049;-78
2022/11/10 01:44:20;;;;;;;42.63;23.20;;;;;;;9.38;100.00;98596.50;2586803;28;20050;-78
2022/11/10 01:45:42;;;;;;;39.53;21.60;;;;;;;9.25;100.00;98606.34;2586398;28;20049;-78
2022/11/10 01:46:57;;;;;;;39.60;22.05;;;;;;;9.13;100.00;98595.25;2586702;28;20054;-78
2022/11/10 01:48:20;;;;;;;44.58;22.60;;;;;;;9.43;100.00;98598.13;2585817;28;20053;-78
2022/11/10 01:49:36;;;;;;;41.08;21.20;;;;;;;9.55;100.00;98594.38;2585784;28;20082;-84
2022/11/10 01:50:52;;;;;;;42.83;22.48;;;;;;;9.59;100.00;98593.44;2586945;28;20412;-77
2022/11/10 01:52:12;;;;;;;40.03;22.33;;;;;;;9.55;100.00;98593.53;2586517;28;20390;-77
2022/11/10 01:53:31;;;;;;;36.38;21.17;;;;;;;9.71;100.00;98588.84;2586913;28;20056;-77
2022/11/10 01:54:48;;;;;;;38.78;22.35;;;;;;;9.74;100.00;98594.84;2586324;28;20510;-79
2022/11/10 01:56:06;;;;;;;42.80;22.17;;;;;;;9.74;100.00;98589.63;2586563;28;20145;-78
2022/11/10 01:57:22;;;;;;;41.75;22.23;;;;;;;9.75;100.00;98590.50;2586249;28;20136;-78
2022/11/10 01:58:42;;;;;;;42.78;21.90;;;;;;;9.73;100.00;98590.50;2586758;28;20105;-78
2022/11/10 01:59:58;;;;;;;38.72;21.40;;;;;;;9.73;100.00;98590.50;2586097;28;20104;-79
2022/11/10 02:01:14;;;;;;;35.80;21.38;;;;;;;9.66;100.00;98599.41;2586641;28;20050;-79
2022/11/10 02:02:57;;;;;;;40.05;22.02;;;;;;;9.68;100.00;98595.00;2586620;28;20141;-79
2022/11/10 02:04:16;;;;;;;41.60;22.20;;;;;;;9.53;100.00;98597.94;2586309;28;20053;-79
2022/11/10 02:05:32;;;;;;;41.83;21.50;;;;;;;9.45;100.00;98601.56;2586137;28;20050;-77
2022/11/10 02:06:48;;;;;;;38.45;21.75;;;;;;;9.41;100.00;98594.69;2586148;28;20056;-78
2022/11/10 02:08:05;;;;;;;35.40;20.38;;;;;;;9.57;100.00;98603.06;2585817;28;20137;-78
2022/11/10 02:09:21;;;;;;;44.75;23.38;;;;;;;9.63;100.00;98599.44;2585701;28;20076;-79
2022/11/10 02:10:36;;;;;;;38.30;21.48;;;;;;;9.66;100.00;98603.75;2585146;28;20539;-79
2022/11/10 02:11:53;;;;;;;44.72;23.85;;;;;;;9.66;100.00;98599.41;2586357;28;20493;-78
2022/11/10 02:13:10;;;;;;;49.20;23.50;;;;;;;9.63;100.00;98602.06;2586443;28;20877;-78
2022/11/10 02:14:26;;;;;;;39.25;22.08;;;;;;;9.58;100.00;98601.31;2585749;28;20504;-80
2022/11/10 02:15:42;;;;;;;44.38;23.80;;;;;;;9.60;100.00;98609.97;2586470;28;20073;-78
2022/11/10 02:16:57;;;;;;;45.03;23.95;;;;;;;9.61;100.00;98607.34;2586246;28;20449;-78
2022/11/10 02:18:13;;;;;;;47.63;23.42;;;;;;;9.54;100.00;98608.34;2585974;28;20064;-78
2022/11/10 02:19:29;;;;;;;43.63;24.05;;;;;;;9.63;100.00;98607.28;2585623;28;20448;-78
2022/11/10 02:20:45;;;;;;;39.13;21.88;;;;;;;9.28;100.00;98621.94;2586290;28;20045;-78
2022/11/10 02:22:00;;;;;;;42.50;21.95;;;;;;;9.15;100.00;98616.97;2585490;28;20049;-80
2022/11/10 02:23:28;;;;;;;42.88;23.13;;;;;;;9.07;100.00;98623.22;2586211;28;20060;-78
2022/11/10 02:24:44;;;;;;;40.47;22.45;;;;;;;9.15;100.00;98623.94;2585914;28;20080;-78
2022/11/10 02:26:01;;;;;;;41.25;22.45;;;;;;;9.40;100.00;98623.44;2586253;28;20085;-79
2022/11/10 02:27:16;;;;;;;39.58;20.95;;;;;;;9.49;100.00;98620.66;2585955;28;20054;-78
2022/11/10 02:28:35;;;;;;;34.25;19.33;;;;;;;9.58;100.00;98630.06;2586006;28;20120;-78
2022/11/10 02:29:51;;;;;;;37.88;21.05;;;;;;;9.60;100.00;98633.50;2586118;28;20451;-78
2022/11/10 02:31:08;;;;;;;39.40;21.10;;;;;;;9.54;100.00;98631.88;2585748;28;20096;-78
2022/11/10 02:32:23;;;;;;;38.25;20.98;;;;;;;9.54;100.00;98625.78;2585875;28;20136;-78
2022/11/10 02:33:39;;;;;;;38.72;21.83;;;;;;;9.30;100.00;98631.50;2585939;28;20050;-79
2022/11/10 02:34:55;;;;;;;39.90;21.35;;;;;;;9.49;100.00;98628.50;2586150;28;20042;-77
2022/11/10 02:36:10;;;;;;;36.47;19.92;;;;;;;9.60;100.00;98623.91;2586012;28;20053;-79
2022/11/10 02:37:26;;;;;;;33.20;20.10;;;;;;;9.66;100.00;98625.53;2586422;28;20093;-79
2022/11/10 02:38:42;;;;;;;41.35;20.63;;;;;;;9.60;100.00;98626.53;2585964;28;20077;-78
2022/11/10 02:39:57;;;;;;;34.83;19.85;;;;;;;9.45;100.00;98625.06;2586455;28;20054;-78
2022/11/10 02:41:13;;;;;;;35.00;20.20;;;;;;;9.58;100.00;98627.44;2585998;28;20088;-77
2022/11/10 02:42:28;;;;;;;34.95;19.25;;;;;;;9.56;100.00;98621.38;2586640;28;20116;-80
2022/11/10 02:43:44;;;;;;;32.78;19.02;;;;;;;9.57;100.00;98625.72;2585697;28;20049;-77
2022/11/10 02:45:00;;;;;;;35.00;19.55;;;;;;;9.46;100.00;98625.94;2586133;28;20405;-78
2022/11/10 02:46:15;;;;;;;33.83;18.52;;;;;;;9.58;100.00;98632.66;2585946;28;20624;-77
2022/11/10 02:47:31;;;;;;;33.15;18.10;;;;;;;9.19;100.00;98639.50;2585720;28;20061;-81
2022/11/10 02:48:47;;;;;;;39.20;20.85;;;;;;;9.20;100.00;98640.38;2586078;28;20074;-77
2022/11/10 02:50:02;;;;;;;41.30;21.70;;;;;;;9.38;100.00;98638.31;2586298;28;20420;-79
2022/11/10 02:51:18;;;;;;;41.92;20.90;;;;;;;9.50;100.00;98637.19;2585407;28;21076;-78
2022/11/10 02:52:33;;;;;;;36.25;20.67;;;;;;;9.51;100.00;98639.78;2585632;28;20099;-79
2022/11/10 02:53:49;;;;;;;33.35;18.67;;;;;;;9.23;100.00;98636.88;2586364;28;20088;-78
2022/11/10 02:55:05;;;;;;;32.67;19.20;;;;;;;9.15;100.00;98640.47;2585964;28;20042;-78
2022/11/10 02:56:21;;;;;;;32.58;18.92;;;;;;;8.86;100.00;98644.47;2586051;28;20080;-78
2022/11/10 02:57:36;;;;;;;29.38;16.63;;;;;;;8.93;100.00;98644.38;2585403;28;20049;-80
2022/11/10 02:58:52;;;;;;;29.17;15.52;;;;;;;9.02;100.00;98644.22;2585856;28;20053;-80
2022/11/10 03:00:08;;;;;;;31.85;15.73;;;;;;;8.72;100.00;98652.53;2585967;28;20050;-79
2022/11/10 03:01:24;;;;;;;30.52;15.73;;;;;;;8.79;100.00;98657.69;2585786;28;20931;-78
2022/11/10 03:02:39;;;;;;;23.90;12.98;;;;;;;9.00;100.00;98652.06;2585876;28;20196;-79
2022/11/10 03:03:55;;;;;;;27.70;14.25;;;;;;;8.88;100.00;98660.13;2586109;28;20336;-78
2022/11/10 03:05:11;;;;;;;28.15;14.80;;;;;;;9.16;100.00;98659.63;2586226;28;20057;-78
2022/11/10 03:06:26;;;;;;;26.80;13.80;;;;;;;9.35;100.00;98662.72;2585372;28;20045;-78
2022/11/10 03:07:42;;;;;;;36.72;18.60;;;;;;;9.29;100.00;98663.75;2585669;28;20411;-81
2022/11/10 03:08:58;;;;;;;38.35;20.20;;;;;;;9.18;100.00;98665.69;2585599;28;20050;-78
2022/11/10 03:10:14;;;;;;;40.63;20.67;;;;;;;9.13;100.00;98665.78;2585380;28;20057;-78
2022/11/10 03:11:29;;;;;;;41.33;22.17;;;;;;;9.09;100.00;98666.72;2585579;28;20096;-78
2022/11/10 03:12:45;;;;;;;41.33;21.55;;;;;;;9.16;100.00;98664.84;2585624;28;20144;-78
2022/11/10 03:14:01;;;;;;;43.25;22.08;;;;;;;9.15;100.00;98668.34;2585769;28;20060;-78
2022/11/10 03:15:16;;;;;;;38.70;22.27;;;;;;;9.36;100.00;98664.47;2585383;28;20488;-78
2022/11/10 03:16:32;;;;;;;40.80;22.58;;;;;;;9.48;100.00;98668.59;2585992;28;20544;-78
2022/11/10 03:17:47;;;;;;;41.17;21.60;;;;;;;9.56;100.00;98663.22;2585463;28;20869;-78
2022/11/10 03:19:04;;;;;;;39.83;20.35;;;;;;;9.19;100.00;98664.78;2585740;28;20101;-78
2022/11/10 03:20:20;;;;;;;42.35;22.85;;;;;;;9.19;100.00;98676.09;2585271;28;20511;-79
2022/11/10 03:21:35;;;;;;;38.28;21.35;;;;;;;9.46;100.00;98673.84;2585413;28;20103;-79
2022/11/10 03:22:50;;;;;;;41.65;22.15;;;;;;;9.49;100.00;98662.47;2585588;28;20112;-78
2022/11/10 03:24:06;;;;;;;43.70;22.15;;;;;;;9.49;100.00;98670.31;2585830;28;20045;-79
2022/11/10 03:25:22;;;;;;;35.00;19.13;;;;;;;9.32;100.00;98676.72;2585576;28;20054;-78
2022/11/10 03:26:37;;;;;;;35.85;19.30;;;;;;;9.32;100.00;98678.47;2585924;28;20592;-78
2022/11/10 03:27:53;;;;;;;32.42;19.35;;;;;;;9.23;100.00;98673.44;2585757;28;20385;-78
2022/11/10 03:29:09;;;;;;;33.88;19.27;;;;;;;9.37;100.00;98674.03;2585431;28;20060;-77
2022/11/10 03:30:25;;;;;;;31.42;17.33;;;;;;;9.40;100.00;98681.81;2585642;28;20063;-79
2022/11/10 03:31:41;;;;;;;23.20;13.52;;;;;;;9.43;100.00;98679.13;2585297;28;20416;-79
2022/11/10 03:32:56;;;;;;;24.42;12.82;;;;;;;9.28;100.00;98682.03;2585433;28;20057;-79
2022/11/10 03:34:12;;;;;;;27.38;16.15;;;;;;;9.07;100.00;98685.91;2585707;28;20556;-78
2022/11/10 03:35:28;;;;;;;33.75;17.38;;;;;;;8.83;100.00;98691.53;2585714;28;20053;-78
2022/11/10 03:36:43;;;;;;;34.13;18.48;;;;;;;9.10;100.00;98691.94;2585925;28;20077;-79
2022/11/10 03:37:59;;;;;;;29.08;16.55;;;;;;;9.16;100.00;98699.66;2585622;28;20056;-82
2022/11/10 03:39:15;;;;;;;28.88;16.05;;;;;;;9.38;100.00;98698.41;2584875;28;20073;-79
2022/11/10 03:40:30;;;;;;;27.63;15.82;;;;;;;9.42;100.00;98707.91;2585558;28;20050;-79
2022/11/10 03:41:46;;;;;;;29.50;16.38;;;;;;;9.43;100.00;98701.81;2570381;28;20054;-78
2022/11/10 03:43:01;;;;;;;28.38;16.88;;;;;;;9.42;100.00;98698.31;2576648;28;20053;-80
2022/11/10 03:44:17;;;;;;;32.50;16.75;;;;;;;9.45;100.00;98705.25;2585220;28;20129;-79
2022/11/10 03:45:32;;;;;;;29.92;16.90;;;;;;;9.50;100.00;98702.53;2585450;28;20077;-78
2022/11/10 03:46:48;;;;;;;28.40;14.88;;;;;;;9.49;100.00;98706.03;2585603;28;20085;-78
2022/11/10 03:48:03;;;;;;;24.92;15.55;;;;;;;9.35;100.00;98709.75;2586000;28;20109;-79
2022/11/10 03:49:19;;;;;;;26.08;14.68;;;;;;;9.37;100.00;98710.63;2584926;28;20049;-78
2022/11/10 03:50:35;;;;;;;26.52;14.52;;;;;;;9.36;100.00;98711.50;2585312;28;20100;-81
2022/11/10 03:51:50;;;;;;;33.63;19.17;;;;;;;9.38;100.00;98724.53;2585261;28;20146;-78
2022/11/10 03:53:06;;;;;;;33.53;18.58;;;;;;;9.41;100.00;98719.25;2585920;28;20046;-79
2022/11/10 03:54:22;;;;;;;38.78;18.67;;;;;;;9.50;100.00;98729.53;2584641;28;20056;-78
2022/11/10 03:55:37;;;;;;;35.80;20.08;;;;;;;9.57;100.00;98725.06;2585146;28;20468;-79
2022/11/10 03:56:53;;;;;;;38.47;19.38;;;;;;;9.44;100.00;98727.91;2585370;28;20046;-77
2022/11/10 03:58:09;;;;;;;35.13;19.20;;;;;;;9.42;100.00;98734.03;2585190;28;20082;-78
2022/11/10 03:59:24;;;;;;;30.40;18.30;;;;;;;9.40;100.00;98723.63;2584585;28;20408;-77
2022/11/10 04:00:40;;;;;;;31.13;17.88;;;;;;;9.36;100.00;98726.31;2573847;28;20054;-77
2022/11/10 04:01:56;;;;;;;34.63;17.40;;;;;;;9.37;100.00;98723.69;2578493;28;20054;-77
2022/11/10 04:03:11;;;;;;;30.67;17.05;;;;;;;9.47;100.00;98726.97;2585549;28;20570;-78
2022/11/10 04:09:09;;;;;;;29.40;16.05;;;;;;;9.18;100.00;98734.44;2585252;28;20060;-81
2022/11/10 04:10:25;;;;;;;30.15;16.25;;;;;;;8.86;100.00;98738.47;2585676;28;20563;-78
2022/11/10 04:16:23;;;;;;;25.65;14.98;;;;;;;8.58;100.00;98751.97;2585261;28;20066;-78
2022/11/10 04:17:39;;;;;;;29.25;15.05;;;;;;;8.72;100.00;98748.28;2585018;28;20600;-78
2022/11/10 04:18:54;;;;;;;26.73;15.02;;;;;;;8.94;100.00;98756.63;2585630;28;20054;-78
2022/11/10 04:20:10;;;;;;;27.20;15.23;;;;;;;9.11;100.00;98753.75;2584982;28;20057;-78
2022/11/10 04:21:26;;;;;;;23.92;13.90;;;;;;;9.23;100.00;98751.81;2585345;28;20078;-78
2022/11/10 04:24:16;;;;;;;27.40;15.32;;;;;;;9.08;100.00;98759.03;2585070;28;20213;-80
2022/11/10 04:26:27;;;;;;;30.08;16.65;;;;;;;9.15;100.00;98758.03;2585633;28;20054;-78
2022/11/10 04:27:07;;;;;;;34.63;18.08;;;;;;;9.13;100.00;98754.59;2585202;28;20497;-78
2022/11/10 04:28:23;;;;;;;36.15;19.40;;;;;;;9.14;100.00;98751.06;2584025;28;20080;-78
2022/11/10 04:29:38;;;;;;;34.60;19.77;;;;;;;9.10;100.00;98754.63;2584980;28;20060;-78
2022/11/10 04:30:54;;;;;;;32.03;18.35;;;;;;;9.22;100.00;98752.69;2585328;28;20448;-79
2022/11/10 04:32:10;;;;;;;36.97;18.80;;;;;;;9.05;100.00;98753.84;2584980;28;20551;-78
2022/11/10 04:33:25;;;;;;;36.95;20.13;;;;;;;9.29;100.00;98751.69;2584393;28;20326;-78
2022/11/10 04:34:41;;;;;;;44.97;20.58;;;;;;;9.39;100.00;98755.88;2586317;28;20734;-78
2022/11/10 04:35:56;;;;;;;38.65;19.02;;;;;;;9.04;100.00;98750.38;2586960;28;20050;-78
2022/11/10 04:37:12;;;;;;;31.85;18.55;;;;;;;8.56;100.00;98756.34;2587010;28;20132;-79
2022/11/10 04:38:28;;;;;;;40.22;20.92;;;;;;;8.67;100.00;98760.56;2586898;28;20496;-78
2022/11/10 04:39:46;;;;;;;39.75;20.38;;;;;;;8.64;100.00;98765.78;2586264;28;20045;-79
2022/11/10 04:41:02;;;;;;;38.08;19.42;;;;;;;8.32;100.00;98774.03;2586491;28;20050;-79
2022/11/10 04:42:18;;;;;;;35.75;19.60;;;;;;;8.48;100.00;98779.03;2586436;28;20172;-80
2022/11/10 04:43:37;;;;;;;34.90;18.33;;;;;;;8.53;100.00;98777.28;2586735;28;20579;-79
2022/11/10 04:44:53;;;;;;;35.33;17.23;;;;;;;8.64;100.00;98784.06;2586688;28;20516;-80
2022/11/10 04:46:22;;;;;;;33.78;17.33;;;;;;;8.90;100.00;98778.47;2586839;28;20050;-78
2022/11/10 04:47:37;;;;;;;33.40;15.30;;;;;;;9.01;100.00;98786.13;2584948;28;20073;-78
2022/11/10 04:48:54;;;;;;;32.22;15.50;;;;;;;9.06;100.00;98786.06;2587365;28;20061;-78
2022/11/10 04:50:09;;;;;;;32.03;16.05;;;;;;;9.15;100.00;98797.22;2587358;28;20057;-79
2022/11/10 04:51:34;;;;;;;30.52;15.07;;;;;;;9.27;100.00;98801.34;2587543;28;20416;-79
2022/11/10 04:52:50;;;;;;;29.45;14.73;;;;;;;9.36;100.00;98799.47;2587398;28;20272;-79
2022/11/10 04:54:06;;;;;;;29.65;13.98;;;;;;;9.48;100.00;98799.28;2586473;28;20049;-80
2022/11/10 04:55:22;;;;;;;29.08;16.35;;;;;;;9.16;100.00;98795.47;2587006;28;20055;-78
2022/11/10 04:56:39;;;;;;;29.90;16.02;;;;;;;9.10;100.00;98800.78;2586731;28;20108;-78
2022/11/10 04:57:55;;;;;;;28.52;15.95;;;;;;;9.31;100.00;98799.56;2586817;28;20134;-81
2022/11/10 04:59:10;;;;;;;32.70;17.17;;;;;;;9.45;100.00;98800.19;2586439;28;20542;-79
2022/11/10 05:00:26;;;;;;;31.23;16.13;;;;;;;9.38;100.00;98802.94;2586724;28;20049;-78
2022/11/10 05:01:41;;;;;;;32.47;16.95;;;;;;;9.18;100.00;98804.13;2586351;28;20050;-78
2022/11/10 05:02:58;;;;;;;27.27;16.27;;;;;;;9.35;100.00;98811.66;2586347;28;20050;-78
2022/11/10 05:04:14;;;;;;;29.08;15.95;;;;;;;9.21;100.00;98816.28;2586622;28;20439;-81
2022/11/10 05:05:30;;;;;;;29.20;15.85;;;;;;;9.14;100.00;98810.28;2585621;28;20522;-78
2022/11/10 05:06:45;;;;;;;25.60;15.38;;;;;;;8.96;100.00;98814.91;2586555;28;20058;-80
2022/11/10 05:08:02;;;;;;;27.35;15.05;;;;;;;8.96;100.00;98820.13;2586412;28;20050;-78
2022/11/10 05:09:18;;;;;;;26.40;15.00;;;;;;;8.88;100.00;98824.63;2586801;28;20041;-79
2022/11/10 05:10:35;;;;;;;25.08;14.52;;;;;;;9.12;100.00;98817.28;2587066;28;20182;-78
2022/11/10 05:11:50;;;;;;;24.95;14.50;;;;;;;8.87;100.00;98815.91;2586847;28;20053;-78
2022/11/10 05:13:06;;;;;;;27.67;15.07;;;;;;;8.82;100.00;98824.72;2586416;28;20104;-78
2022/11/10 05:14:22;;;;;;;24.00;14.23;;;;;;;8.80;100.00;98822.13;2587218;28;20053;-80
2022/11/10 05:15:40;;;;;;;25.70;13.50;;;;;;;9.05;100.00;98821.75;2586538;28;20416;-78
2022/11/10 05:16:55;;;;;;;30.02;14.57;;;;;;;8.77;100.00;98830.00;2586831;28;20053;-78
2022/11/10 05:18:11;;;;;;;23.17;12.48;;;;;;;8.99;100.00;98832.31;2586931;28;20501;-78
2022/11/10 05:19:27;;;;;;;23.90;13.32;;;;;;;8.77;100.00;98835.22;2586292;28;20061;-78
2022/11/10 05:20:42;;;;;;;25.83;14.13;;;;;;;8.84;100.00;98839.47;2585703;28;20073;-78
2022/11/10 05:21:58;;;;;;;29.58;14.95;;;;;;;8.81;100.00;98839.53;2586861;28;20085;-77
2022/11/10 05:24:48;;;;;;;24.75;13.45;;;;;;;8.36;100.00;98845.31;2586526;28;20873;-81
2022/11/10 05:26:13;;;;;;;22.95;13.40;;;;;;;8.55;100.00;98845.97;2586891;28;20050;-79
2022/11/10 05:27:28;;;;;;;26.45;14.32;;;;;;;8.69;100.00;98843.16;2586767;28;20069;-78
2022/11/10 05:28:45;;;;;;;25.58;14.02;;;;;;;8.46;100.00;98844.31;2586043;28;20054;-78
2022/11/10 05:30:00;;;;;;;26.90;15.38;;;;;;;8.39;100.00;98847.03;2587134;28;20057;-78
2022/11/10 05:31:16;;;;;;;32.03;16.15;;;;;;;8.34;100.00;98855.75;2586398;28;20050;-78
2022/11/10 05:32:31;;;;;;;31.30;14.20;;;;;;;8.56;100.00;98849.41;2586953;28;20100;-79
2022/11/10 05:33:47;;;;;;;26.77;14.20;;;;;;;8.59;100.00;98852.88;2586518;28;20056;-82
2022/11/10 05:35:03;;;;;;;116.88;14.82;;;;;;;8.43;100.00;98864.34;2586322;28;20398;-79
2022/11/10 05:36:18;;;;;;;24.55;12.20;;;;;;;8.56;100.00;98858.13;2569554;28;20218;-79
2022/11/10 05:37:34;;;;;;;49.30;13.43;;;;;;;8.36;100.00;98860.97;2576992;28;20084;-79
2022/11/10 05:38:50;;;;;;;243.32;20.48;;;;;;;8.45;100.00;98862.59;2585703;28;20119;-79
2022/11/10 05:40:06;;;;;;;102.72;16.38;;;;;;;8.14;100.00;98866.41;2586077;28;20050;-80
2022/11/10 05:41:21;;;;;;;92.80;13.95;;;;;;;7.85;100.00;98867.59;2585372;28;20137;-79
2022/11/10 05:42:47;;;;;;;70.32;13.43;;;;;;;7.59;100.00;98873.06;2586193;28;20046;-80
2022/11/10 05:44:03;;;;;;;315.65;26.77;;;;;;;7.82;100.00;98875.44;2586154;28;20619;-80
2022/11/10 05:45:21;;;;;;;95.30;15.23;;;;;;;7.56;100.00;98878.31;2585590;28;20064;-79
2022/11/10 05:46:37;;;;;;;106.30;15.93;;;;;;;7.70;100.00;98878.16;2585105;28;20137;-79
2022/11/10 05:47:53;;;;;;;117.45;14.32;;;;;;;7.83;100.00;98886.75;2586151;28;20049;-82
2022/11/10 05:49:09;;;;;;;38.78;12.70;;;;;;;8.05;100.00;98885.63;2585884;28;20074;-80
2022/11/10 05:50:25;;;;;;;19.67;10.60;;;;;;;8.16;100.00;98882.91;2585668;28;20042;-80
2022/11/10 05:51:40;;;;;;;20.48;11.18;;;;;;;8.20;100.00;98883.75;2586451;28;20099;-79
2022/11/10 05:52:56;;;;;;;34.20;11.93;;;;;;;8.13;100.00;98888.16;2586320;28;20045;-80
2022/11/10 05:54:11;;;;;;;25.77;10.73;;;;;;;8.16;100.00;98898.56;2585205;28;20060;-79
2022/11/10 05:55:28;;;;;;;17.52;10.32;;;;;;;8.15;100.00;98899.44;2585904;28;20052;-79
2022/11/10 05:56:44;;;;;;;17.35;10.00;;;;;;;8.19;100.00;98901.16;2585143;28;20045;-83
2022/11/10 05:58:00;;;;;;;18.52;9.43;;;;;;;8.25;100.00;98907.16;2585805;28;20495;-79
2022/11/10 05:59:16;;;;;;;17.38;9.00;;;;;;;8.19;100.00;98913.31;2586350;28;20046;-79
2022/11/10 06:00:32;;;;;;;15.68;9.13;;;;;;;8.03;100.00;98915.19;2585568;28;20340;-79
2022/11/10 06:01:47;;;;;;;15.80;9.45;;;;;;;7.93;100.00;98913.59;2585392;28;20046;-79
2022/11/10 06:03:12;;;;;;;15.77;10.00;;;;;;;8.06;100.00;98916.03;2585481;28;20088;-82
2022/11/10 06:04:28;;;;;;;19.33;9.93;;;;;;;8.12;100.00;98920.34;2585553;28;20077;-83
2022/11/10 06:05:44;;;;;;;15.02;9.25;;;;;;;8.15;100.00;98920.31;2586314;28;20045;-81
2022/11/10 06:07:00;;;;;;;17.63;9.60;;;;;;;8.04;100.00;98927.41;2586469;28;20054;-80